Time,TemperatureF,DewpointF,PressureIn,WindDirection,WindDirectionDegrees,WindSpeedMPH,WindSpeedGustMPH,Humidity,HourlyPrecipIn,Conditions,Clouds,dailyrainin,SolarRadiationWatts/m^2,SoftwareType,DateUTC
2013-03-14 00:11:00,37.7,27.0,29.93,WNW,286,3.0,18.0,66,0.00,,,0.00,0,weatherlink.com 1.10,2013-03-14 04:11:00,
2013-03-14 00:25:00,37.3,27.0,29.93,West,266,8.0,20.0,66,0.00,,,0.00,0,weatherlink.com 1.10,2013-03-14 04:25:00,
2013-03-14 00:40:00,36.9,26.0,29.93,WNW,288,7.0,15.0,66,0.00,,,0.00,0,weatherlink.com 1.10,2013-03-14 04:40:00,
2013-03-14 00:55:00,36.6,26.0,29.93,WNW,298,6.0,15.0,65,0.00,,,0.00,0,weatherlink.com 1.10,2013-03-14 04:55:00,
2013-03-14 01:10:00,36.3,25.0,29.93,WNW,288,7.0,16.0,65,0.00,,,0.00,0,weatherlink.com 1.10,2013-03-14 05:10:00,
2013-03-14 01:25:00,35.9,25.0,29.94,WNW,288,4.0,12.0,65,0.00,,,0.00,0,weatherlink.com 1.10,2013-03-14 05:25:00,
2013-03-14 01:40:00,35.5,25.0,29.95,WNW,284,6.0,18.0,65,0.00,,,0.00,0,weatherlink.com 1.10,2013-03-14 05:40:00,
2013-03-14 01:55:00,35.1,24.0,29.95,West,277,4.0,13.0,65,0.00,,,0.00,0,weatherlink.com 1.10,2013-03-14 05:55:00,
2013-03-14 02:10:00,34.8,24.0,29.95,West,266,8.0,18.0,65,0.00,,,0.00,0,weatherlink.com 1.10,2013-03-14 06:10:00,
2013-03-14 02:25:00,34.4,23.0,29.95,WNW,299,7.0,17.0,64,0.00,,,0.00,0,weatherlink.com 1.10,2013-03-14 06:25:00,
2013-03-14 02:40:00,34.1,23.0,29.95,WSW,257,6.0,14.0,63,0.00,,,0.00,0,weatherlink.com 1.10,2013-03-14 06:40:00,
2013-03-14 02:56:00,33.9,22.0,29.95,NW,321,3.0,14.0,63,0.00,,,0.00,0,weatherlink.com 1.10,2013-03-14 06:56:00,
2013-03-14 03:11:00,33.7,22.0,29.95,West,272,4.0,17.0,62,0.00,,,0.00,0,weatherlink.com 1.10,2013-03-14 07:11:00,
2013-03-14 03:26:00,33.5,21.0,29.94,West,278,6.0,16.0,60,0.00,,,0.00,0,weatherlink.com 1.10,2013-03-14 07:26:00,
2013-03-14 03:42:00,33.1,21.0,29.94,WNW,292,5.0,14.0,62,0.00,,,0.00,0,weatherlink.com 1.10,2013-03-14 07:42:00,
2013-03-14 04:26:00,32.2,21.0,29.94,NW,308,5.0,14.0,63,0.00,,,0.00,0,weatherlink.com 1.10,2013-03-14 08:26:00,
2013-03-14 04:41:00,31.8,21.0,29.95,NW,309,7.0,12.0,64,0.00,,,0.00,0,weatherlink.com 1.10,2013-03-14 08:41:00,
2013-03-14 04:57:00,31.6,21.0,29.95,NW,322,4.0,14.0,64,0.00,,,0.00,0,weatherlink.com 1.10,2013-03-14 08:57:00,
2013-03-14 05:11:00,31.4,20.0,29.95,WNW,295,3.0,12.0,64,0.00,,,0.00,0,weatherlink.com 1.10,2013-03-14 09:11:00,
2013-03-14 05:26:00,31.2,19.0,29.96,WNW,302,4.0,9.0,62,0.00,,,0.00,0,weatherlink.com 1.10,2013-03-14 09:26:00,
2013-03-14 05:42:00,30.9,19.0,29.96,WNW,288,5.0,7.0,62,0.00,,,0.00,0,weatherlink.com 1.10,2013-03-14 09:42:00,
2013-03-14 05:57:00,30.8,19.0,29.96,WNW,293,4.0,10.0,62,0.00,,,0.00,0,weatherlink.com 1.10,2013-03-14 09:57:00,
2013-03-14 06:12:00,30.8,19.0,29.96,WNW,293,4.0,10.0,61,0.00,,,0.00,0,weatherlink.com 1.10,2013-03-14 10:12:00,
2013-03-14 06:27:00,30.8,19.0,29.96,NW,304,15.0,15.0,61,0.00,,,0.00,0,weatherlink.com 1.10,2013-03-14 10:27:00,
2013-03-14 06:42:00,30.9,18.0,29.96,NNW,328,8.0,13.0,59,0.00,,,0.00,0,weatherlink.com 1.10,2013-03-14 10:42:00,
2013-03-14 06:57:00,30.7,18.0,29.97,WNW,298,7.0,15.0,59,0.00,,,0.00,0,weatherlink.com 1.10,2013-03-14 10:57:00,
2013-03-14 07:12:00,30.7,18.0,29.97,WNW,288,2.0,14.0,59,0.00,,,0.00,5,weatherlink.com 1.10,2013-03-14 11:12:00,
2013-03-14 07:27:00,30.9,18.0,29.97,WNW,299,8.0,14.0,59,0.00,,,0.00,12,weatherlink.com 1.10,2013-03-14 11:27:00,
2013-03-14 07:42:00,31.3,18.0,29.98,WNW,298,5.0,12.0,59,0.00,,,0.00,35,weatherlink.com 1.10,2013-03-14 11:42:00,
2013-03-14 07:57:00,31.8,18.0,29.98,NW,319,9.0,12.0,58,0.00,,,0.00,65,weatherlink.com 1.10,2013-03-14 11:57:00,
2013-03-14 08:12:00,32.5,19.0,29.98,WNW,289,8.0,14.0,58,0.00,,,0.00,77,weatherlink.com 1.10,2013-03-14 12:12:00,
2013-03-14 08:27:00,32.4,20.0,29.98,WNW,286,11.0,20.0,60,0.00,,,0.00,88,weatherlink.com 1.10,2013-03-14 12:27:00,
2013-03-14 08:42:00,32.4,21.0,29.98,WNW,288,8.0,19.0,62,0.00,,,0.00,91,weatherlink.com 1.10,2013-03-14 12:42:00,
2013-03-14 08:57:00,32.4,21.0,29.98,NW,310,18.0,19.0,64,0.00,,,0.00,91,weatherlink.com 1.10,2013-03-14 12:57:00,
2013-03-14 09:12:00,32.5,22.0,29.99,West,259,5.0,17.0,65,0.00,,,0.00,86,weatherlink.com 1.10,2013-03-14 13:12:00,
2013-03-14 09:29:00,32.7,20.0,29.99,NNW,327,20.0,22.0,61,0.00,,,0.00,123,weatherlink.com 1.10,2013-03-14 13:29:00,
2013-03-14 09:42:00,32.9,20.0,29.99,NNE,13,12.0,27.0,59,0.00,,,0.00,113,weatherlink.com 1.10,2013-03-14 13:42:00,
2013-03-14 09:58:00,33.1,19.0,29.99,WNW,295,7.0,21.0,56,0.00,,,0.00,97,weatherlink.com 1.10,2013-03-14 13:58:00,
2013-03-14 10:12:00,33.9,18.0,29.99,WNW,302,13.0,21.0,53,0.00,,,0.00,265,weatherlink.com 1.10,2013-03-14 14:12:00,
2013-03-14 10:28:00,33.8,18.0,29.98,NW,325,11.0,27.0,52,0.00,,,0.00,141,weatherlink.com 1.10,2013-03-14 14:28:00,
2013-03-14 10:42:00,34.3,17.0,29.99,NW,321,11.0,26.0,49,0.00,,,0.00,193,weatherlink.com 1.10,2013-03-14 14:42:00,
2013-03-14 10:58:00,35.0,16.0,29.99,NNW,338,9.0,23.0,47,0.00,,,0.00,527,weatherlink.com 1.10,2013-03-14 14:58:00,
2013-03-14 11:13:00,35.6,16.0,29.98,North,360,11.0,27.0,44,0.00,,,0.00,686,weatherlink.com 1.10,2013-03-14 15:13:00,
2013-03-14 11:28:00,36.2,16.0,29.98,WNW,293,8.0,27.0,44,0.00,,,0.00,397,weatherlink.com 1.10,2013-03-14 15:28:00,
2013-03-14 11:43:00,36.6,16.0,29.96,NNW,340,11.0,27.0,44,0.00,,,0.00,497,weatherlink.com 1.10,2013-03-14 15:43:00,
2013-03-14 11:58:00,36.1,16.0,29.96,NNW,346,10.0,27.0,44,0.00,,,0.00,220,weatherlink.com 1.10,2013-03-14 15:58:00,
2013-03-14 12:12:00,36.7,15.0,29.96,WNW,296,22.0,25.0,42,0.00,,,0.00,287,weatherlink.com 1.10,2013-03-14 16:12:00,
2013-03-14 12:27:00,38.0,17.0,29.95,West,271,6.0,28.0,42,0.00,,,0.00,911,weatherlink.com 1.10,2013-03-14 16:27:00,
2013-03-14 12:42:00,38.4,16.0,29.95,NNW,337,11.0,21.0,41,0.00,,,0.00,877,weatherlink.com 1.10,2013-03-14 16:42:00,
2013-03-14 12:59:00,38.4,16.0,29.94,WNW,300,9.0,24.0,41,0.00,,,0.00,225,weatherlink.com 1.10,2013-03-14 16:59:00,
2013-03-14 13:13:00,39.7,17.0,29.94,NNW,343,3.0,22.0,40,0.00,,,0.00,976,weatherlink.com 1.10,2013-03-14 17:13:00,
2013-03-14 13:28:00,39.1,18.0,29.93,WNW,284,21.0,26.0,42,0.00,,,0.00,861,weatherlink.com 1.10,2013-03-14 17:28:00,
2013-03-14 13:44:00,40.7,18.0,29.93,West,275,16.0,26.0,40,0.00,,,0.00,909,weatherlink.com 1.10,2013-03-14 17:44:00,
2013-03-14 13:57:00,41.0,16.0,29.92,West,263,12.0,25.0,37,0.00,,,0.00,853,weatherlink.com 1.10,2013-03-14 17:57:00,
2013-03-14 14:12:00,40.9,17.0,29.91,NW,316,7.0,25.0,38,0.00,,,0.00,907,weatherlink.com 1.10,2013-03-14 18:12:00,
2013-03-14 14:28:00,41.4,15.0,29.91,NW,314,11.0,25.0,35,0.00,,,0.00,872,weatherlink.com 1.10,2013-03-14 18:28:00,
2013-03-14 14:43:00,43.2,16.0,29.90,North,5,10.0,19.0,34,0.00,,,0.00,803,weatherlink.com 1.10,2013-03-14 18:43:00,
2013-03-14 14:59:00,42.5,16.0,29.90,NNW,346,16.0,27.0,34,0.00,,,0.00,863,weatherlink.com 1.10,2013-03-14 18:59:00,
2013-03-14 15:13:00,42.1,16.0,29.90,WNW,283,18.0,22.0,35,0.00,,,0.00,237,weatherlink.com 1.10,2013-03-14 19:13:00,
2013-03-14 15:28:00,40.8,16.0,29.90,NW,312,11.0,28.0,36,0.00,,,0.00,181,weatherlink.com 1.10,2013-03-14 19:28:00,
2013-03-14 15:43:00,41.9,16.0,29.90,WSW,256,12.0,24.0,35,0.00,,,0.00,260,weatherlink.com 1.10,2013-03-14 19:43:00,
2013-03-14 15:58:00,42.1,16.0,29.90,WNW,290,15.0,24.0,35,0.00,,,0.00,169,weatherlink.com 1.10,2013-03-14 19:58:00,
2013-03-14 16:13:00,41.8,14.0,29.90,West,264,7.0,21.0,33,0.00,,,0.00,693,weatherlink.com 1.10,2013-03-14 20:13:00,
2013-03-14 16:28:00,41.7,16.0,29.90,West,275,8.0,20.0,35,0.00,,,0.00,568,weatherlink.com 1.10,2013-03-14 20:28:00,
2013-03-14 16:43:00,42.0,16.0,29.90,WNW,302,6.0,29.0,35,0.00,,,0.00,517,weatherlink.com 1.10,2013-03-14 20:43:00,
2013-03-14 17:00:00,41.3,15.0,29.90,NW,323,9.0,18.0,34,0.00,,,0.00,410,weatherlink.com 1.10,2013-03-14 21:00:00,
2013-03-14 17:13:00,41.3,15.0,29.90,North,350,9.0,28.0,34,0.00,,,0.00,134,weatherlink.com 1.10,2013-03-14 21:13:00,
2013-03-14 17:28:00,41.9,15.0,29.90,West,269,8.0,19.0,34,0.00,,,0.00,287,weatherlink.com 1.10,2013-03-14 21:28:00,
2013-03-14 17:43:00,41.3,13.0,29.90,WSW,256,9.0,28.0,32,0.00,,,0.00,70,weatherlink.com 1.10,2013-03-14 21:43:00,
2013-03-14 17:58:00,40.7,13.0,29.90,WNW,284,15.0,23.0,32,0.00,,,0.00,192,weatherlink.com 1.10,2013-03-14 21:58:00,
2013-03-14 18:14:00,40.7,14.0,29.91,WNW,293,9.0,22.0,33,0.00,,,0.00,35,weatherlink.com 1.10,2013-03-14 22:14:00,
2013-03-14 18:29:00,40.2,14.0,29.90,WNW,302,5.0,24.0,34,0.00,,,0.00,28,weatherlink.com 1.10,2013-03-14 22:29:00,
2013-03-14 18:44:00,39.9,13.0,29.91,WNW,300,11.0,23.0,34,0.00,,,0.00,16,weatherlink.com 1.10,2013-03-14 22:44:00,
2013-03-14 18:59:00,39.6,13.0,29.91,WNW,292,8.0,22.0,34,0.00,,,0.00,7,weatherlink.com 1.10,2013-03-14 22:59:00,
2013-03-14 19:14:00,39.2,14.0,29.92,WNW,295,8.0,21.0,35,0.00,,,0.00,0,weatherlink.com 1.10,2013-03-14 23:14:00,
2013-03-14 19:29:00,38.9,14.0,29.93,NW,321,10.0,17.0,36,0.00,,,0.00,0,weatherlink.com 1.10,2013-03-14 23:29:00,
2013-03-14 19:44:00,38.8,13.0,29.93,WNW,298,4.0,18.0,35,0.00,,,0.00,0,weatherlink.com 1.10,2013-03-14 23:44:00,
2013-03-14 19:59:00,38.5,14.0,29.94,West,273,6.0,18.0,36,0.00,,,0.00,0,weatherlink.com 1.10,2013-03-14 23:59:00,
2013-03-14 20:13:00,38.2,13.0,29.94,WNW,302,4.0,14.0,36,0.00,,,0.00,0,weatherlink.com 1.10,2013-03-15 00:13:00,
2013-03-14 20:28:00,38.2,13.0,29.95,West,280,10.0,17.0,36,0.00,,,0.00,0,weatherlink.com 1.10,2013-03-15 00:28:00,
2013-03-14 20:43:00,37.9,13.0,29.95,West,277,3.0,20.0,36,0.00,,,0.00,0,weatherlink.com 1.10,2013-03-15 00:43:00,
2013-03-14 20:58:00,37.6,13.0,29.95,WNW,297,5.0,15.0,36,0.00,,,0.00,0,weatherlink.com 1.10,2013-03-15 00:58:00,
2013-03-14 21:13:00,37.4,13.0,29.95,WNW,296,12.0,15.0,36,0.00,,,0.00,0,weatherlink.com 1.10,2013-03-15 01:13:00,
2013-03-14 21:29:00,37.2,12.0,29.96,WNW,296,2.0,14.0,36,0.00,,,0.00,0,weatherlink.com 1.10,2013-03-15 01:29:00,
2013-03-14 21:44:00,36.6,12.0,29.96,WNW,302,4.0,11.0,37,0.00,,,0.00,0,weatherlink.com 1.10,2013-03-15 01:44:00,
2013-03-14 21:59:00,36.2,13.0,29.96,WNW,284,3.0,13.0,39,0.00,,,0.00,0,weatherlink.com 1.10,2013-03-15 01:59:00,
2013-03-14 22:14:00,35.9,14.0,29.97,North,9,4.0,13.0,40,0.00,,,0.00,0,weatherlink.com 1.10,2013-03-15 02:14:00,
2013-03-14 22:31:00,35.7,13.0,29.97,NNW,336,1.0,7.0,40,0.00,,,0.00,0,weatherlink.com 1.10,2013-03-15 02:31:00,
2013-03-14 22:44:00,35.6,13.0,29.98,NNW,332,4.0,13.0,39,0.00,,,0.00,0,weatherlink.com 1.10,2013-03-15 02:44:00,
2013-03-14 22:59:00,35.5,12.0,29.98,WNW,297,7.0,16.0,38,0.00,,,0.00,0,weatherlink.com 1.10,2013-03-15 02:59:00,
2013-03-14 23:14:00,35.4,12.0,29.98,WNW,294,7.0,16.0,38,0.00,,,0.00,0,weatherlink.com 1.10,2013-03-15 03:14:00,
2013-03-14 23:29:00,35.6,12.0,29.99,NNW,343,12.0,18.0,37,0.00,,,0.00,0,weatherlink.com 1.10,2013-03-15 03:29:00,
2013-03-14 23:44:00,35.5,11.0,29.99,WNW,299,12.0,19.0,37,0.00,,,0.00,0,weatherlink.com 1.10,2013-03-15 03:44:00,
2013-03-14 23:59:00,35.2,11.0,29.99,NW,322,8.0,17.0,37,0.00,,,0.00,0,weatherlink.com 1.10,2013-03-15 03:59:00,